Weather at Štětí Airstrip

Public forecast

Using degrees Celsius for public forecast. Weather courtesy of forecast.io.

Closest aviation weather report (METAR) to Štětí Airstrip

Closest report is Vodochody Airport, 14.9 nm (27.6 km) S. Retrieved 2020/12/03 12:00 UTC (1 hour ago):

LKVO 031200Z 17006KT 9000 BKN016 OVC021 00/M02 Q1007 R28///99//

Closest aviation forecast (TAF) to Štětí Airstrip

Forecast is more than 12 hours old.

Closest forecast is Kbely Air Base, 21.3 nm (39.4 km) SSE. Retrieved 2020/12/02 12:00 UTC (1 day ago):

TAF LKKB 021100Z 0212/0312 12008KT 9999 BKN022 BECMG 0212/0214 CAVOK BECMG 0222/0300 BKN020 BECMG 0303/0305 7000 SN BKN014 TEMPO 0305/0309 3000 SN BR BKN006 OVC015